Terminal Aerodrome Forecast
Issued by NWS

Home | Current Version | Previous Version | Text Only | Print | Product List | Glossary On
Versions: 1 2 3 4 5 6 7 8 9 10 11 12 13 14
692
FTUS44 KMAF 201720
TAFFST
TAF
KFST 201720Z 2018/2118 30010KT P6SM BKN250
     FM210200 21011KT P6SM BKN250=

USA.gov is the U.S. government's official web portal to all federal, state and local government web resources and services.